Time;durP1;ratioP1;P1;durP2;ratioP2;P2;SDS_P1;SDS_P2;PMS_P1;PMS_P2;Temp;Humidity;BMP_temperature;BMP_pressure;BME280_temperature;BME280_humidity;BME280_pressure;Samples;Min_cycle;Max_cycle;Signal;HPM_P1;HPM_P2
2022/12/10 07:37:09;;;;;;;1.13;0.70;;;-0.70;99.90;-1.20;100691.00;;;;5004597;28;20748;-68
2022/12/10 07:39:35;;;;;;;1.80;1.70;;;-0.50;99.90;-0.90;100700.00;;;;5028676;28;20200;-68
2022/12/10 07:42:21;;;;;;;1.80;1.70;;;-0.40;99.90;-1.30;100696.00;;;;5001036;28;20538;-67
2022/12/10 07:44:50;;;;;;;0.40;0.40;;;-0.50;99.90;-1.40;100706.00;;;;5012074;28;20207;-67
2022/12/10 07:47:25;;;;;;;1.20;1.20;;;-0.60;99.90;-0.90;100697.00;;;;5010951;28;20192;-67
2022/12/10 07:49:51;;;;;;;0.80;0.80;;;-0.40;99.90;-0.90;100700.00;;;;5021317;28;20274;-67
2022/12/10 07:52:19;;;;;;;2.83;2.63;;;-0.30;99.90;-0.90;100707.00;;;;5037251;28;20267;-67
2022/12/10 07:54:48;;;;;;;0.40;0.40;;;-0.20;99.90;-0.50;100693.00;;;;4986043;28;20675;-67
2022/12/10 07:57:15;;;;;;;1.73;1.63;;;-0.20;99.90;-0.90;100652.00;;;;5017892;28;20567;-67
2022/12/10 07:59:44;;;;;;;3.47;2.33;;;-0.10;99.90;-1.00;100704.00;;;;5004298;28;20203;-67
2022/12/10 08:02:10;;;;;;;1.50;1.40;;;-0.20;99.90;-1.10;100711.00;;;;5017903;28;20188;-67
2022/12/10 08:04:38;;;;;;;1.83;1.73;;;-0.30;99.90;-1.40;100694.00;;;;5027062;28;20707;-68
2022/12/10 08:07:12;;;;;;;0.40;0.40;;;-0.50;99.90;-1.40;100704.00;;;;5027637;28;20292;-67
2022/12/10 08:09:58;;;;;;;2.50;2.30;;;-0.60;99.90;-1.80;100627.00;;;;5025367;28;20210;-67
2022/12/10 08:12:44;;;;;;;1.23;1.23;;;-0.80;99.90;-1.90;100725.00;;;;4999300;28;20239;-67
2022/12/10 08:15:10;;;;;;;3.80;1.03;;;-0.90;99.90;-1.80;100720.00;;;;5005740;28;20195;-67
2022/12/10 08:17:38;;;;;;;2.20;1.07;;;-0.90;99.90;-1.60;100732.00;;;;5001374;28;20272;-68
2022/12/10 08:20:05;;;;;;;1.27;1.03;;;-0.80;99.90;-1.30;100736.00;;;;5032042;28;20191;-67
2022/12/10 08:22:35;;;;;;;2.37;2.27;;;-0.60;99.90;-1.60;100744.00;;;;4996623;28;20196;-68
2022/12/10 08:25:01;;;;;;;1.50;1.40;;;-0.60;99.90;-0.80;100734.00;;;;4997360;28;20200;-67
2022/12/10 08:27:47;;;;;;;1.67;1.57;;;-0.40;99.90;-1.40;100734.00;;;;5031828;28;20197;-67
2022/12/10 08:30:16;;;;;;;0.40;0.40;;;-0.50;99.90;-1.30;100754.00;;;;5009902;28;20200;-67
2022/12/10 08:32:42;;;;;;;2.67;1.43;;;-0.50;99.90;-1.80;100736.00;;;;5004581;28;20222;-69
2022/12/10 08:35:08;;;;;;;0.30;0.30;;;-0.70;99.90;-1.60;100739.00;;;;5000305;28;20200;-67
2022/12/10 08:37:42;;;;;;;2.23;1.53;;;-0.80;99.90;-1.70;100753.00;;;;5022920;28;20209;-68
2022/12/10 08:40:27;;;;;;;2.83;2.60;;;-0.80;99.90;-1.50;100754.00;;;;5007053;28;20185;-67
2022/12/10 08:42:58;;;;;;;1.47;1.37;;;-0.70;99.90;-1.70;100738.00;;;;4997175;28;20203;-67
2022/12/10 08:45:27;;;;;;;3.13;2.93;;;-0.70;99.90;-1.80;100755.00;;;;5015015;28;20204;-67
2022/12/10 08:47:55;;;;;;;0.30;0.30;;;-0.80;99.90;-1.40;100754.00;;;;5026845;28;20212;-68
2022/12/10 08:50:24;;;;;;;0.30;0.30;;;-0.70;99.90;-0.50;100756.00;;;;5009640;28;20192;-67
2022/12/10 08:52:50;;;;;;;3.37;3.17;;;-0.30;99.90;-0.90;100756.00;;;;5026879;28;20220;-67
2022/12/10 08:55:25;;;;;;;3.97;3.50;;;-0.20;99.90;-0.70;100751.00;;;;5026304;28;20203;-68
2022/12/10 08:57:53;;;;;;;0.40;0.40;;;-0.10;99.90;-1.10;100755.00;;;;5034768;28;20188;-68
2022/12/10 09:00:20;;;;;;;0.50;0.50;;;-0.20;99.90;-1.20;100743.00;;;;5029223;28;20204;-68
2022/12/10 09:02:53;;;;;;;0.93;0.93;;;-0.30;99.90;-1.40;100692.00;;;;5016253;28;20286;-68
2022/12/10 09:05:19;;;;;;;0.40;0.40;;;-0.40;99.90;-1.40;100742.00;;;;5040136;28;20238;-68
2022/12/10 09:07:50;;;;;;;1.33;1.30;;;-0.50;99.90;-1.00;100763.00;;;;5032791;28;20274;-61
2022/12/10 09:10:16;;;;;;;1.00;1.00;;;-0.40;99.90;-0.80;100727.00;;;;4997926;28;20350;-66
2022/12/10 09:12:45;;;;;;;0.40;0.40;;;-0.20;99.90;-0.70;100732.00;;;;5000426;28;20682;-66
2022/12/10 09:15:11;;;;;;;0.30;0.30;;;-0.10;99.90;-0.20;100764.00;;;;4992970;28;20193;-66
2022/12/10 09:17:38;;;;;;;5.20;2.20;;;0.10;99.90;-0.70;100770.00;;;;5002538;28;20191;-67
2022/12/10 09:20:08;;;;;;;1.60;1.40;;;0.10;99.90;-1.10;100774.00;;;;4996070;28;20204;-66
2022/12/10 09:22:36;;;;;;;7.10;5.10;;;-0.10;99.90;-1.00;100729.00;;;;5024889;28;20196;-66
2022/12/10 09:25:07;;;;;;;1.33;1.27;;;-0.10;99.90;-1.20;100776.00;;;;5009040;28;20216;-66
2022/12/10 09:27:33;;;;;;;2.27;2.20;;;-0.30;99.90;-1.10;100762.00;;;;5006016;28;20275;-66
2022/12/10 09:29:59;;;;;;;0.97;0.97;;;-0.30;99.90;-1.10;100780.00;;;;5014338;28;20192;-66
2022/12/10 09:32:27;;;;;;;0.93;0.83;;;-0.30;99.90;-1.30;100756.00;;;;5018493;28;20230;-67
2022/12/10 09:34:53;;;;;;;2.80;2.60;;;-0.30;99.90;-1.10;100763.00;;;;5005352;28;20191;-66
2022/12/10 09:37:23;;;;;;;1.40;1.40;;;-0.30;99.90;-1.00;100781.00;;;;5027821;28;20575;-66
2022/12/10 09:39:49;;;;;;;1.67;1.57;;;-0.20;99.90;-0.80;100765.00;;;;5008877;28;20199;-66
2022/12/10 09:43:05;;;;;;;1.50;1.40;;;-0.20;99.90;-1.00;100783.00;;;;5003405;28;20196;-66
2022/12/10 09:46:10;;;;;;;3.40;1.47;;;-0.20;99.90;-1.10;100782.00;;;;5027441;28;20192;-66
2022/12/10 09:48:59;;;;;;;1.30;1.30;;;-0.20;99.90;-0.80;100784.00;;;;4999021;28;20286;-66
2022/12/10 09:51:37;;;;;;;1.67;1.67;;;-0.10;99.90;-1.00;100793.00;;;;4995669;28;20191;-66
2022/12/10 09:54:21;;;;;;;0.37;0.37;;;-0.10;99.90;-1.00;100792.00;;;;5025916;28;20279;-65
2022/12/10 09:56:50;;;;;;;0.50;0.50;;;-0.20;99.90;-0.80;100786.00;;;;5012333;28;20218;-65
2022/12/10 09:59:23;;;;;;;1.23;0.77;;;-0.10;99.90;-0.90;100761.00;;;;5025341;28;20232;-66
2022/12/10 10:02:22;;;;;;;1.90;1.27;;;-0.10;99.90;-0.50;100793.00;;;;5025095;28;20199;-67
2022/12/10 10:05:24;;;;;;;0.40;0.40;;;0.10;99.90;-0.40;100795.00;;;;5008634;28;20229;-66
2022/12/10 10:07:58;;;;;;;2.17;1.97;;;0.20;99.90;-0.50;100781.00;;;;5024265;28;20198;-66
2022/12/10 10:10:29;;;;;;;0.87;0.87;;;0.20;99.90;-0.50;100787.00;;;;5017506;28;20209;-66
2022/12/10 10:13:07;;;;;;;0.97;0.83;;;0.30;99.90;-0.60;100794.00;;;;5005622;28;20303;-66
2022/12/10 10:15:44;;;;;;;2.50;2.40;;;0.30;99.90;-0.60;100793.00;;;;5000632;28;20651;-66
2022/12/10 10:18:48;;;;;;;3.27;2.50;;;0.10;99.90;-0.80;100778.00;;;;5013999;28;20196;-66
2022/12/10 10:34:02;;;;;;;0.63;0.63;;;0.20;99.90;-0.90;100799.00;;;;5087977;27;21024;-69
2022/12/10 10:37:22;;;;;;;5.17;3.83;;;0.10;99.90;-0.80;100782.00;;;;5081957;28;20205;-72
2022/12/10 10:40:21;;;;;;;0.73;0.73;;;0.20;99.90;0.10;100816.00;;;;5075506;28;20671;-72
2022/12/10 10:42:59;;;;;;;1.90;1.43;;;0.50;99.90;-0.30;100801.00;;;;5065927;28;20197;-73
2022/12/10 10:46:16;;;;;;;1.50;1.40;;;0.70;99.90;-0.10;100800.00;;;;5065378;28;20173;-73
2022/12/10 10:50:01;;;;;;;6.90;2.00;;;0.80;99.90;-0.30;100794.00;;;;5055228;28;20601;-73
2022/12/10 10:53:21;;;;;;;3.07;2.20;;;0.70;99.90;-0.40;100797.00;;;;5054600;28;20209;-73
2022/12/10 10:56:24;;;;;;;7.17;6.63;;;0.50;99.90;-0.50;100801.00;;;;5072970;28;20186;-72
2022/12/10 10:59:00;;;;;;;0.20;0.20;;;0.40;99.90;0.10;100747.00;;;;5059624;28;20186;-73
2022/12/10 11:02:29;;;;;;;;;;;;;;;;;;;;;
2022/12/10 11:05:25;;;;;;;3.03;1.50;;;0.80;99.90;0.10;100763.00;;;;5052017;28;20178;-73
2022/12/10 11:08:30;;;;;;;0.90;0.90;;;0.80;99.90;-0.10;100741.00;;;;5052102;28;20591;-73
2022/12/10 11:11:45;;;;;;;0.50;0.50;;;0.80;99.90;-0.10;100797.00;;;;5060546;28;20232;-73
2022/12/10 11:14:31;;;;;;;2.00;1.47;;;0.80;99.90;0.00;100796.00;;;;5048269;28;20186;-73
2022/12/10 11:17:24;;;;;;;4.00;1.67;;;0.80;99.90;0.10;100786.00;;;;5057322;28;20196;-73
2022/12/10 11:20:17;;;;;;;3.23;2.50;;;0.90;99.90;-0.10;100783.00;;;;5059077;28;20182;-73
2022/12/10 11:23:04;;;;;;;1.13;1.13;;;0.90;99.90;0.30;100792.00;;;;5060239;28;20188;-73
2022/12/10 11:25:36;;;;;;;4.27;3.47;;;0.90;99.90;0.20;100788.00;;;;5055719;28;20663;-72
2022/12/10 11:28:42;;;;;;;8.57;4.07;;;1.00;99.90;0.20;100734.00;;;;5061711;28;20269;-72
2022/12/10 11:31:41;;;;;;;0.60;0.60;;;1.00;99.90;0.20;100789.00;;;;5054489;28;20184;-73
2022/12/10 11:34:45;;;;;;;4.90;1.77;;;1.00;99.90;0.20;100797.00;;;;5060132;28;20194;-73
2022/12/10 11:37:36;;;;;;;3.17;2.87;;;1.00;99.90;0.20;100792.00;;;;5053889;28;20650;-73
2022/12/10 11:40:40;;;;;;;1.20;1.20;;;1.00;99.90;0.70;100797.00;;;;5042526;28;20280;-72
2022/12/10 11:43:30;;;;;;;4.80;2.27;;;1.20;99.90;0.70;100791.00;;;;5060852;28;20194;-72
2022/12/10 11:46:11;;;;;;;5.37;1.63;;;1.30;99.90;0.40;100758.00;;;;5043377;28;20182;-73
2022/12/10 11:49:28;;;;;;;0.63;0.63;;;1.30;99.90;0.70;100763.00;;;;5045057;28;20183;-72
2022/12/10 11:52:30;;;;;;;1.93;1.83;;;1.30;99.90;1.00;100774.00;;;;5028394;28;20641;-73
2022/12/10 11:55:42;;;;;;;6.67;6.07;;;1.50;99.90;0.70;100783.00;;;;5037351;28;20722;-73
2022/12/10 11:58:35;;;;;;;14.70;7.17;;;1.50;99.90;1.10;100782.00;;;;5045391;28;20183;-72
2022/12/10 12:01:28;;;;;;;1.67;1.57;;;1.70;99.90;0.70;100731.00;;;;5035610;28;20706;-73
2022/12/10 12:04:38;;;;;;;8.17;4.17;;;1.60;99.90;0.50;100782.00;;;;5036449;28;20201;-72
2022/12/10 12:08:00;;;;;;;8.80;6.43;;;1.40;99.90;0.80;100779.00;;;;5041931;28;20186;-72
2022/12/10 12:10:50;;;;;;;2.10;2.00;;;1.50;99.90;0.60;100776.00;;;;5028992;28;20474;-73
2022/12/10 12:13:26;;;;;;;1.40;1.30;;;1.50;99.90;1.20;100784.00;;;;5016309;28;20218;-72
2022/12/10 12:16:22;;;;;;;1.00;0.97;;;1.70;99.90;1.40;100767.00;;;;4999197;28;20574;-73
2022/12/10 12:19:02;;;;;;;1.23;1.13;;;1.80;99.90;1.90;100777.00;;;;5007890;28;20199;-73
2022/12/10 12:21:28;;;;;;;11.40;2.40;;;2.20;99.90;1.70;100767.00;;;;5037416;28;20629;-73
2022/12/10 12:24:23;;;;;;;2.43;1.87;;;2.30;99.90;1.00;100770.00;;;;5051547;28;20186;-73
2022/12/10 12:27:20;;;;;;;3.60;1.60;;;1.90;99.90;1.20;100716.00;;;;5044810;28;20199;-74
2022/12/10 12:30:15;;;;;;;2.60;2.40;;;1.90;99.90;1.20;100779.00;;;;5048889;28;20198;-73
2022/12/10 12:33:10;;;;;;;2.23;1.17;;;1.90;99.90;1.60;100778.00;;;;5042388;28;20259;-73
2022/12/10 12:39:43;;;;;;;0.80;0.80;;;1.80;99.90;0.90;100782.00;;;;5035424;28;20206;-73
2022/12/10 12:42:58;;;;;;;3.03;2.30;;;1.70;99.90;1.10;100777.00;;;;5039321;28;20185;-73
2022/12/10 12:46:02;;;;;;;0.60;0.60;;;1.80;99.90;0.90;100781.00;;;;5036684;28;20194;-73
2022/12/10 12:49:10;;;;;;;7.33;2.43;;;1.80;99.90;0.90;100773.00;;;;5043875;28;20182;-73
2022/12/10 12:52:05;;;;;;;3.93;2.13;;;1.80;99.90;0.90;100778.00;;;;5040561;28;20699;-73
2022/12/10 12:55:40;;;;;;;6.97;2.30;;;1.80;99.90;1.60;100786.00;;;;5048984;28;20206;-72
2022/12/10 12:58:39;;;;;;;3.97;2.97;;;2.10;99.90;1.30;100778.00;;;;5033421;28;20283;-73
2022/12/10 13:01:51;;;;;;;0.40;0.40;;;2.10;99.90;1.50;100779.00;;;;5039124;28;20191;-72
2022/12/10 13:04:39;;;;;;;0.40;0.40;;;2.00;99.90;2.40;100742.00;;;;5038658;28;20194;-73
2022/12/10 13:08:29;;;;;;;0.73;0.73;;;2.50;99.90;1.60;100786.00;;;;5032517;28;20186;-72
2022/12/10 13:11:13;;;;;;;4.80;3.23;;;2.40;99.90;1.30;100776.00;;;;4981555;28;20235;-71
2022/12/10 13:14:17;;;;;;;1.03;1.03;;;2.10;99.90;1.70;100780.00;;;;4988995;28;20231;-70
2022/12/10 13:17:34;;;;;;;0.40;0.40;;;2.10;99.90;1.40;100782.00;;;;5003580;28;20305;-71
2022/12/10 13:20:31;;;;;;;3.70;3.13;;;2.00;99.90;1.10;100774.00;;;;5046553;28;20212;-70
2022/12/10 13:23:31;;;;;;;7.50;3.33;;;2.00;99.90;1.20;100782.00;;;;5044301;28;20183;-70
2022/12/10 13:26:31;;;;;;;0.50;0.50;;;2.00;99.90;1.30;100775.00;;;;5048902;28;20206;-70
2022/12/10 13:29:42;;;;;;;0.60;0.60;;;2.10;99.90;1.60;100785.00;;;;5039845;28;20240;-70
2022/12/10 13:32:34;;;;;;;0.53;0.53;;;2.10;99.90;2.10;100792.00;;;;5042974;28;20206;-70
2022/12/10 13:35:22;;;;;;;2.67;2.57;;;2.40;99.90;1.90;100785.00;;;;5030760;28;20190;-70
2022/12/10 13:38:12;;;;;;;1.80;1.80;;;2.40;99.90;2.40;100752.00;;;;5031122;28;20186;-70
2022/12/10 13:44:36;;;;;;;2.10;2.00;;;2.40;99.90;1.20;100788.00;;;;5059656;28;20228;-70
2022/12/10 13:47:32;;;;;;;1.27;1.27;;;2.10;99.90;1.70;100787.00;;;;5047676;28;20186;-70
2022/12/10 13:50:35;;;;;;;0.40;0.40;;;2.20;99.90;1.60;100786.00;;;;5047403;28;20252;-70
2022/12/10 13:53:23;;;;;;;13.03;2.80;;;2.30;99.90;1.40;100737.00;;;;5044569;28;20249;-70
2022/12/10 13:56:21;;;;;;;8.60;3.23;;;2.20;99.90;1.20;100784.00;;;;5041277;28;20238;-70
2022/12/10 13:59:11;;;;;;;1.50;1.30;;;2.20;99.90;1.40;100785.00;;;;5038497;28;20209;-70
2022/12/10 14:02:02;;;;;;;2.60;2.50;;;2.10;99.90;1.70;100797.00;;;;5040285;28;20657;-70
2022/12/10 14:05:19;;;;;;;0.67;0.67;;;2.20;99.90;1.90;100800.00;;;;5048969;28;20592;-70
2022/12/10 14:12:18;;;;;;;0.40;0.40;;;2.40;99.90;1.60;100806.00;;;;5045337;28;20206;-71
2022/12/10 14:15:24;;;;;;;0.57;0.57;;;2.40;99.90;2.00;100797.00;;;;5049944;28;20247;-70
2022/12/10 14:18:23;;;;;;;0.43;0.43;;;2.30;99.90;2.00;100765.00;;;;5066328;28;20244;-71
2022/12/10 14:21:17;;;;;;;9.40;6.40;;;2.50;99.90;2.60;100819.00;;;;5042490;28;20281;-71
2022/12/10 14:23:49;;;;;;;5.77;4.33;;;2.80;99.90;2.40;100773.00;;;;5047596;28;20185;-71
2022/12/10 14:26:27;;;;;;;1.97;1.80;;;2.80;99.90;1.90;100830.00;;;;5049843;28;20206;-70
2022/12/10 14:29:46;;;;;;;4.53;1.53;;;2.60;99.90;1.90;100827.00;;;;5032756;28;20280;-71
2022/12/10 14:32:56;;;;;;;0.60;0.60;;;2.40;99.90;2.00;100829.00;;;;5041267;28;20237;-71
2022/12/10 14:36:02;;;;;;;1.00;1.00;;;2.70;99.90;1.80;100819.00;;;;5047865;28;20186;-70
2022/12/10 14:39:20;;;;;;;2.73;2.57;;;2.70;99.90;1.60;100822.00;;;;5046657;28;20566;-70
2022/12/10 14:42:29;;;;;;;0.50;0.50;;;2.40;99.90;2.20;100829.00;;;;5049503;28;20182;-70
2022/12/10 14:45:40;;;;;;;1.80;1.70;;;2.50;99.90;2.50;100826.00;;;;5017116;28;20209;-71
2022/12/10 14:49:11;;;;;;;1.40;1.27;;;2.80;99.90;1.70;100831.00;;;;5032705;28;20198;-70
2022/12/10 14:51:58;;;;;;;0.90;0.90;;;2.50;99.90;1.70;100832.00;;;;5046511;28;20244;-71
2022/12/10 14:55:31;;;;;;;1.50;1.40;;;2.40;99.90;1.80;100832.00;;;;5035297;28;20231;-71
2022/12/10 14:58:40;;;;;;;0.60;0.60;;;2.50;99.90;2.20;100827.00;;;;5049824;28;20645;-70
2022/12/10 15:01:52;;;;;;;2.83;1.93;;;2.60;99.90;1.70;100767.00;;;;5050188;28;20543;-70
2022/12/10 15:04:59;;;;;;;3.10;1.07;;;2.50;99.90;1.90;100827.00;;;;5049137;28;20217;-70
2022/12/10 15:08:01;;;;;;;0.70;0.70;;;2.50;99.90;1.60;100825.00;;;;5032543;28;20281;-70
2022/12/10 15:11:07;;;;;;;1.67;1.57;;;2.40;99.90;1.90;100776.00;;;;5048132;28;20200;-70
2022/12/10 15:13:53;;;;;;;7.63;1.77;;;2.40;99.90;1.90;100772.00;;;;5030184;28;20279;-71
2022/12/10 15:16:57;;;;;;;0.60;0.60;;;2.50;99.90;1.80;100824.00;;;;5049232;28;20200;-70
2022/12/10 15:19:59;;;;;;;1.23;1.13;;;2.40;99.90;1.70;100820.00;;;;5051298;28;20193;-71
2022/12/10 15:23:13;;;;;;;1.23;1.13;;;2.40;99.90;1.70;100829.00;;;;5052751;28;20182;-71
2022/12/10 15:26:26;;;;;;;3.80;3.37;;;2.40;99.90;1.50;100828.00;;;;5037548;28;20296;-71
2022/12/10 15:29:25;;;;;;;1.17;1.17;;;2.40;99.90;1.70;100844.00;;;;5052124;28;20653;-71
2022/12/10 15:36:38;;;;;;;3.10;1.63;;;2.30;99.90;1.50;100833.00;;;;5040976;28;20574;-69
2022/12/10 15:39:21;;;;;;;0.30;0.30;;;2.30;99.90;1.70;100835.00;;;;5016682;28;20203;-68
2022/12/10 15:45:14;;;;;;;1.53;1.43;;;2.40;99.90;1.60;100839.00;;;;5052858;28;20316;-71
2022/12/10 15:48:21;;;;;;;3.40;2.63;;;2.40;99.90;1.90;100835.00;;;;5049750;28;20190;-70
2022/12/10 15:51:25;;;;;;;3.50;3.23;;;2.40;99.90;2.00;100818.00;;;;5052270;28;21118;-69
2022/12/10 15:54:38;;;;;;;1.73;1.67;;;2.60;99.90;1.70;100838.00;;;;5052055;28;20637;-68
2022/12/10 15:57:28;;;;;;;1.73;1.63;;;2.50;99.90;1.80;100793.00;;;;5025741;28;20193;-68
2022/12/10 16:00:48;;;;;;;0.67;0.67;;;2.40;99.90;1.90;100833.00;;;;5045326;28;20194;-71
2022/12/10 16:03:46;;;;;;;3.23;2.93;;;2.40;99.90;1.90;100829.00;;;;5050790;28;20726;-71
2022/12/10 16:06:24;;;;;;;0.50;0.50;;;2.50;99.90;1.80;100829.00;;;;5045511;28;20198;-71
2022/12/10 16:09:15;;;;;;;0.40;0.40;;;2.40;99.90;1.90;100848.00;;;;5035776;28;20653;-71
2022/12/10 16:11:58;;;;;;;1.43;1.43;;;2.50;99.90;1.90;100845.00;;;;5051103;28;20280;-71
2022/12/10 16:14:59;;;;;;;4.53;2.70;;;2.50;99.90;1.80;100850.00;;;;5035231;28;20605;-71
2022/12/10 16:18:04;;;;;;;3.07;2.83;;;2.40;99.90;2.00;100831.00;;;;5050933;28;20216;-71
2022/12/10 16:20:59;;;;;;;2.50;1.63;;;2.50;99.90;1.50;100802.00;;;;5033392;28;20236;-71
2022/12/10 16:24:14;;;;;;;1.03;1.03;;;2.40;99.90;1.60;100839.00;;;;5048554;28;20236;-71
2022/12/10 16:27:17;;;;;;;2.07;1.97;;;2.30;99.90;1.60;100829.00;;;;5050705;28;20580;-71
2022/12/10 16:30:13;;;;;;;6.30;5.80;;;2.30;99.90;1.90;100850.00;;;;5050878;28;20178;-70
2022/12/10 16:33:18;;;;;;;6.80;2.53;;;2.40;99.90;1.60;100836.00;;;;5050251;28;20249;-71
2022/12/10 16:36:08;;;;;;;11.20;4.97;;;2.30;99.90;1.50;100811.00;;;;5052478;28;20529;-65
2022/12/10 16:38:40;;;;;;;6.03;2.73;;;2.30;99.90;1.40;100833.00;;;;5026378;28;20210;-70
2022/12/10 16:41:29;;;;;;;3.57;3.37;;;2.20;99.90;1.40;100832.00;;;;5051324;28;20177;-70
2022/12/10 16:44:21;;;;;;;3.27;2.37;;;2.20;99.90;1.30;100845.00;;;;5051840;28;20190;-67
2022/12/10 16:46:46;;;;;;;8.43;3.67;;;2.10;99.90;1.30;100839.00;;;;5051110;28;20202;-67
2022/12/10 16:49:24;;;;;;;2.43;2.23;;;2.10;99.90;1.30;100830.00;;;;5050316;28;20187;-67
2022/12/10 16:51:51;;;;;;;2.50;2.30;;;2.10;99.90;1.50;100847.00;;;;5049725;28;20206;-67
2022/12/10 16:54:25;;;;;;;1.20;0.67;;;2.10;99.90;1.40;100844.00;;;;5052998;28;20633;-70
2022/12/10 16:57:12;;;;;;;13.53;3.20;;;2.10;99.90;1.60;100847.00;;;;5050770;28;20657;-70
2022/12/10 17:00:23;;;;;;;2.83;1.90;;;2.20;99.90;1.20;100854.00;;;;5052235;28;20212;-70
2022/12/10 17:03:16;;;;;;;0.40;0.40;;;2.00;99.90;1.20;100851.00;;;;5050298;28;20208;-67
2022/12/10 17:05:54;;;;;;;0.37;0.37;;;2.00;99.90;1.20;100857.00;;;;5049945;28;20313;-69
2022/12/10 17:08:48;;;;;;;0.50;0.50;;;2.00;99.90;1.40;100845.00;;;;5050375;28;20572;-68
2022/12/10 17:11:49;;;;;;;2.73;2.60;;;2.00;99.90;1.20;100846.00;;;;5018350;28;20197;-71
2022/12/10 17:14:30;;;;;;;7.13;5.00;;;2.00;99.90;1.30;100856.00;;;;5049461;28;20181;-69
2022/12/10 17:17:03;;;;;;;4.73;3.00;;;2.10;99.90;1.30;100837.00;;;;5033522;28;20190;-70
2022/12/10 17:19:40;;;;;;;3.43;3.23;;;2.10;99.90;1.60;100798.00;;;;5051376;28;20186;-69
2022/12/10 17:22:23;;;;;;;0.93;0.63;;;2.10;99.90;1.80;100858.00;;;;5050503;28;20189;-70
2022/12/10 17:24:49;;;;;;;0.53;0.53;;;2.30;99.90;1.40;100837.00;;;;5050231;28;20190;-70
2022/12/10 17:27:19;;;;;;;0.63;0.63;;;2.10;99.90;1.60;100854.00;;;;5049730;28;20190;-70
2022/12/10 17:29:53;;;;;;;8.63;4.80;;;2.10;99.90;1.60;100847.00;;;;5049811;28;20181;-71
2022/12/10 17:32:23;;;;;;;1.10;1.10;;;2.20;99.90;1.50;100858.00;;;;5048103;28;20224;-71
2022/12/10 17:35:26;;;;;;;1.77;1.27;;;2.20;99.90;1.50;100868.00;;;;5050331;28;20178;-69
2022/12/10 17:38:22;;;;;;;1.63;1.53;;;2.10;99.90;1.50;100870.00;;;;5050524;28;20197;-69
2022/12/10 17:41:20;;;;;;;0.40;0.40;;;2.20;99.90;2.00;100870.00;;;;5050055;28;20182;-69
2022/12/10 17:44:41;;;;;;;1.20;1.13;;;2.30;99.90;1.60;100867.00;;;;5044907;28;20198;-69
2022/12/10 17:47:25;;;;;;;1.10;1.03;;;2.30;99.90;1.50;100858.00;;;;5050507;28;20709;-69
2022/12/10 17:49:55;;;;;;;5.30;5.10;;;2.20;99.90;2.20;100866.00;;;;5033773;28;20190;-70
2022/12/10 17:53:02;;;;;;;5.10;3.00;;;2.50;99.90;2.20;100867.00;;;;5049113;28;20751;-70
2022/12/10 17:55:56;;;;;;;2.93;2.40;;;2.60;99.90;2.20;100859.00;;;;5049486;28;20190;-69
2022/12/10 17:58:47;;;;;;;0.50;0.50;;;2.60;99.90;2.20;100853.00;;;;5043355;28;20214;-70
2022/12/10 18:01:51;;;;;;;2.60;2.30;;;2.60;99.90;1.80;100857.00;;;;5050295;28;20213;-70
2022/12/10 18:04:43;;;;;;;0.70;0.60;;;2.50;99.90;1.70;100832.00;;;;5032207;28;20275;-69
2022/12/10 18:07:35;;;;;;;0.83;0.83;;;2.40;99.90;1.90;100858.00;;;;5043691;28;20198;-70
2022/12/10 18:10:31;;;;;;;0.97;0.97;;;2.40;99.90;2.20;100862.00;;;;5042194;28;20198;-70
2022/12/10 18:13:21;;;;;;;1.10;0.83;;;2.50;99.90;1.60;100847.00;;;;5049971;28;20220;-70
2022/12/10 18:16:20;;;;;;;0.40;0.40;;;2.40;99.90;2.20;100853.00;;;;5032411;28;20190;-70
2022/12/10 18:18:51;;;;;;;1.00;1.00;;;2.50;99.90;2.30;100816.00;;;;5050304;28;20198;-70
2022/12/10 18:21:44;;;;;;;0.63;0.63;;;2.70;99.90;2.40;100788.00;;;;5028431;28;20653;-70
2022/12/10 18:24:09;;;;;;;1.00;1.00;;;2.80;99.90;1.90;100847.00;;;;5042014;28;20197;-69
2022/12/10 18:26:38;;;;;;;1.57;1.47;;;2.60;99.90;1.80;100844.00;;;;5043876;28;20190;-69
2022/12/10 18:29:13;;;;;;;1.07;0.97;;;2.50;99.90;1.80;100848.00;;;;5035153;28;20618;-70
2022/12/10 18:31:51;;;;;;;0.93;0.93;;;2.50;99.90;1.90;100848.00;;;;5031927;28;20217;-70
2022/12/10 18:34:22;;;;;;;0.87;0.87;;;2.50;99.90;1.70;100782.00;;;;5047170;28;20641;-69
2022/12/10 18:37:19;;;;;;;3.13;2.93;;;2.40;99.90;1.50;100788.00;;;;5039138;28;20269;-70
2022/12/10 18:39:51;;;;;;;0.80;0.80;;;2.40;99.90;1.90;100844.00;;;;5040277;28;20186;-70
2022/12/10 18:42:20;;;;;;;1.50;1.07;;;2.40;99.90;2.50;100851.00;;;;5049553;28;20653;-70
2022/12/10 18:44:46;;;;;;;3.97;3.20;;;2.60;99.90;2.70;100853.00;;;;5051655;28;20648;-70
2022/12/10 18:47:21;;;;;;;0.50;0.50;;;2.80;99.90;2.50;100853.00;;;;5046068;28;20182;-70
2022/12/10 18:49:47;;;;;;;1.77;0.67;;;2.90;99.90;2.70;100853.00;;;;5038636;28;20236;-70
2022/12/10 18:52:17;;;;;;;0.60;0.60;;;3.00;99.90;2.00;100844.00;;;;5043688;28;20214;-70
2022/12/10 18:54:43;;;;;;;11.63;2.80;;;2.80;99.90;1.90;100854.00;;;;5041022;28;20182;-71
2022/12/10 18:57:13;;;;;;;0.50;0.50;;;2.60;99.90;2.00;100858.00;;;;5028038;28;20522;-71
2022/12/10 18:59:42;;;;;;;2.30;2.17;;;2.50;99.90;2.50;100843.00;;;;5050417;28;20189;-71
2022/12/10 19:02:26;;;;;;;1.00;1.00;;;2.70;99.90;2.10;100831.00;;;;5056324;28;20592;-71
2022/12/10 19:05:21;;;;;;;0.60;0.60;;;2.70;99.90;1.70;100795.00;;;;5053260;28;20616;-71
2022/12/10 19:07:55;;;;;;;0.87;0.87;;;2.50;99.90;2.40;100819.00;;;;5034499;28;20189;-72
2022/12/10 19:10:27;;;;;;;1.87;1.77;;;2.60;99.90;2.80;100865.00;;;;5043523;28;20192;-71
2022/12/10 19:13:02;;;;;;;0.60;0.60;;;3.00;99.90;2.30;100856.00;;;;5050711;28;20233;-71
2022/12/10 19:15:31;;;;;;;1.33;1.33;;;2.80;99.90;2.10;100823.00;;;;5052752;28;20202;-71
2022/12/10 19:18:02;;;;;;;1.80;1.70;;;2.70;99.90;2.30;100844.00;;;;5050998;28;20585;-70
2022/12/10 19:20:52;;;;;;;1.13;1.13;;;2.80;99.90;1.90;100858.00;;;;5050491;28;20330;-70
2022/12/10 19:23:44;;;;;;;5.80;5.43;;;2.60;99.90;2.10;100843.00;;;;5048729;28;20190;-71
2022/12/10 19:26:34;;;;;;;0.60;0.60;;;2.70;99.90;2.20;100800.00;;;;5041847;28;20187;-71
2022/12/10 19:29:23;;;;;;;0.90;0.90;;;2.70;99.90;2.00;100806.00;;;;5052432;28;20187;-70
2022/12/10 19:32:01;;;;;;;0.70;0.70;;;2.60;99.90;1.80;100822.00;;;;5034731;28;20840;-69
2022/12/10 19:34:33;;;;;;;1.20;1.20;;;2.50;99.90;1.80;100833.00;;;;5047254;28;20182;-69
2022/12/10 19:37:01;;;;;;;3.30;1.90;;;2.50;99.90;1.90;100851.00;;;;5043762;28;20183;-69
2022/12/10 19:39:33;;;;;;;4.97;2.77;;;2.50;99.90;1.60;100784.00;;;;5048331;28;20269;-70
2022/12/10 19:42:13;;;;;;;4.80;3.27;;;2.40;99.90;1.50;100836.00;;;;5045507;28;20189;-69
2022/12/10 19:44:45;;;;;;;4.50;4.27;;;2.30;99.90;2.00;100817.00;;;;5050886;28;20672;-70
2022/12/10 19:47:34;;;;;;;5.43;5.17;;;2.50;99.90;1.80;100852.00;;;;5049898;28;20248;-70
2022/12/10 19:50:00;;;;;;;3.77;2.43;;;2.50;99.90;1.90;100794.00;;;;5041672;28;20256;-69
2022/12/10 19:52:34;;;;;;;2.80;2.50;;;2.50;99.90;2.10;100796.00;;;;5033511;28;20206;-69
2022/12/10 19:55:04;;;;;;;1.37;1.27;;;2.60;99.90;2.50;100851.00;;;;5051497;28;20188;-69
2022/12/10 19:57:53;;;;;;;0.80;0.80;;;2.70;99.90;2.30;100832.00;;;;5049298;28;20188;-70
2022/12/10 20:00:31;;;;;;;1.37;1.37;;;2.80;99.90;1.80;100806.00;;;;5047650;28;20202;-68
2022/12/10 20:02:57;;;;;;;0.63;0.60;;;2.50;99.90;1.50;100837.00;;;;5052058;28;20217;-68
2022/12/10 20:05:31;;;;;;;1.67;1.63;;;2.30;99.90;1.70;100848.00;;;;5049206;28;20709;-69
2022/12/10 20:08:08;;;;;;;2.80;2.50;;;2.40;99.90;1.30;100856.00;;;;5037501;28;20193;-68
2022/12/10 20:10:43;;;;;;;1.07;1.07;;;2.30;99.90;1.40;100787.00;;;;5032164;28;20658;-68
2022/12/10 20:13:11;;;;;;;1.30;1.23;;;2.20;99.90;1.40;100844.00;;;;5046640;28;20202;-68
2022/12/10 20:15:40;;;;;;;7.70;4.67;;;2.20;99.90;1.30;100835.00;;;;5051170;28;20564;-68
2022/12/10 20:18:06;;;;;;;3.30;2.30;;;2.20;99.90;1.60;100846.00;;;;5038174;28;20186;-68
2022/12/10 20:20:32;;;;;;;4.23;3.83;;;2.30;99.90;1.60;100837.00;;;;5043210;28;20190;-68
2022/12/10 20:23:01;;;;;;;14.93;4.67;;;2.30;99.90;1.80;100823.00;;;;5040397;28;20236;-68
2022/12/10 20:25:30;;;;;;;0.67;0.67;;;2.40;99.90;1.50;100836.00;;;;5039145;28;20273;-69
2022/12/10 20:28:02;;;;;;;5.20;2.87;;;2.30;99.90;1.60;100849.00;;;;5040605;28;20279;-69
2022/12/10 20:30:30;;;;;;;3.40;3.10;;;2.20;99.90;1.50;100846.00;;;;5042384;28;20178;-69
2022/12/10 20:33:02;;;;;;;4.43;3.70;;;2.30;99.90;1.60;100845.00;;;;5045417;28;20214;-69
2022/12/10 20:35:33;;;;;;;1.23;1.23;;;2.30;99.90;1.60;100844.00;;;;5042814;28;20248;-69